Time;durP1;ratioP1;P1;durP2;ratioP2;P2;SDS_P1;SDS_P2;PMS_P1;PMS_P2;Temp;Humidity;BMP_temperature;BMP_pressure;BME280_temperature;BME280_humidity;BME280_pressure;Samples;Min_cycle;Max_cycle;Signal;HPM_P1;HPM_P2
2022/05/27 00:02:14;;;;;;;4.83;1.37;;;15.80;1.00;;;;;;5056223;28;20203;-73
2022/05/27 00:04:40;;;;;;;3.00;1.20;;;15.80;1.00;;;;;;5057127;28;20259;-73
2022/05/27 00:07:05;;;;;;;3.00;1.40;;;15.90;1.00;;;;;;5057461;28;20258;-73
2022/05/27 00:09:31;;;;;;;5.20;1.43;;;15.80;1.00;;;;;;5057469;28;20642;-72
2022/05/27 00:11:57;;;;;;;3.77;1.40;;;15.80;99.90;;;;;;5058215;28;20297;-74
2022/05/27 00:14:22;;;;;;;1.97;1.00;;;15.80;99.90;;;;;;5058149;28;20257;-73
2022/05/27 00:16:48;;;;;;;4.03;1.10;;;15.70;1.00;;;;;;5057146;28;20253;-74
2022/05/27 00:19:14;;;;;;;2.77;1.20;;;15.70;99.90;;;;;;5058453;28;20202;-73
2022/05/27 00:21:40;;;;;;;3.70;1.47;;;15.70;99.90;;;;;;5058383;28;20202;-73
2022/05/27 00:24:05;;;;;;;4.40;1.87;;;15.70;1.00;;;;;;5056842;28;20211;-71
2022/05/27 00:26:31;;;;;;;2.27;1.30;;;15.70;1.00;;;;;;5058086;28;20215;-72
2022/05/27 00:28:57;;;;;;;2.43;1.30;;;15.70;58.80;;;;;;5058608;28;20168;-72
2022/05/27 00:31:22;;;;;;;2.67;1.20;;;15.70;99.90;;;;;;5058620;28;20203;-73
2022/05/27 00:33:48;;;;;;;4.47;1.40;;;15.60;1.00;;;;;;5058031;28;20176;-72
2022/05/27 00:36:14;;;;;;;2.83;1.20;;;15.60;1.00;;;;;;5058368;28;20214;-73
2022/05/27 00:38:41;;;;;;;4.07;1.30;;;15.90;1.00;;;;;;5056882;28;20179;-73
2022/05/27 00:41:07;;;;;;;5.03;1.60;;;15.50;1.00;;;;;;5056305;28;20214;-73
2022/05/27 00:43:33;;;;;;;4.67;1.60;;;15.50;1.00;;;;;;5056634;28;20180;-73
2022/05/27 00:46:06;;;;;;;2.70;1.47;;;15.50;1.00;;;;;;5056537;28;20260;-73
2022/05/27 00:48:34;;;;;;;1.80;1.40;;;15.60;1.00;;;;;;5058198;28;20164;-73
2022/05/27 00:50:59;;;;;;;3.43;1.50;;;15.60;1.00;;;;;;5058725;28;20202;-73
2022/05/27 00:53:48;;;;;;;6.27;1.40;;;15.60;1.00;;;;;;5061978;28;20630;-72
2022/05/27 00:56:15;;;;;;;2.07;1.50;;;15.60;1.00;;;;;;5061974;28;20199;-72
2022/05/27 00:58:49;;;;;;;4.13;1.50;;;15.50;41.20;;;;;;5060020;28;20549;-73
2022/05/27 01:01:15;;;;;;;4.17;1.50;;;15.50;1.00;;;;;;5061658;28;20159;-72
2022/05/27 01:03:42;;;;;;;2.27;1.30;;;15.50;1.00;;;;;;5061602;28;20183;-72
2022/05/27 01:06:08;;;;;;;1.93;1.53;;;15.50;1.00;;;;;;5060398;28;20314;-73
2022/05/27 01:08:34;;;;;;;1.77;1.30;;;15.50;99.90;;;;;;5059947;28;20180;-73
2022/05/27 01:10:59;;;;;;;7.90;1.50;;;15.50;1.00;;;;;;5061557;28;20190;-73
2022/05/27 01:13:50;;;;;;;3.03;1.70;;;15.50;1.00;;;;;;5060013;28;20271;-73
2022/05/27 01:16:39;;;;;;;1.53;1.40;;;15.40;1.00;;;;;;5061734;28;20203;-72
2022/05/27 01:23:05;;;;;;;4.33;1.70;;;15.50;1.00;;;;;;5061450;28;20194;-73
2022/05/27 01:25:50;;;;;;;4.03;1.53;;;15.50;1.00;;;;;;5022978;28;20216;-72
2022/05/27 01:28:39;;;;;;;3.17;1.50;;;15.50;1.00;;;;;;5059192;28;20228;-72
2022/05/27 01:31:09;;;;;;;3.20;1.87;;;15.50;1.00;;;;;;5060513;28;20171;-74
2022/05/27 01:33:43;;;;;;;3.63;1.50;;;15.40;1.00;;;;;;5060781;28;20160;-72
2022/05/27 01:36:27;;;;;;;4.07;1.60;;;15.40;3.60;;;;;;5083262;22;20219;-78
2022/05/27 01:39:30;;;;;;;2.77;1.63;;;15.40;99.90;;;;;;5035370;28;20220;-76
2022/05/27 01:42:30;;;;;;;4.20;1.77;;;15.40;99.90;;;;;;5035047;28;20156;-79
2022/05/27 01:45:24;;;;;;;4.37;1.90;;;15.30;99.90;;;;;;4974383;28;20188;-76
2022/05/27 01:48:01;;;;;;;4.07;1.40;;;15.30;99.90;;;;;;5022399;28;20291;-77
2022/05/27 01:50:42;;;;;;;5.57;1.70;;;15.30;99.90;;;;;;5014988;28;20492;-76
2022/05/27 01:53:24;;;;;;;5.37;1.60;;;15.20;1.00;;;;;;5015236;28;20153;-77
2022/05/27 01:56:00;;;;;;;3.30;1.70;;;15.20;1.00;;;;;;5015312;28;20168;-77
2022/05/27 01:58:32;;;;;;;3.87;1.60;;;15.20;1.00;;;;;;4997524;28;20184;-77
2022/05/27 02:00:57;;;;;;;4.37;1.80;;;15.20;1.00;;;;;;5014789;28;20651;-77
2022/05/27 02:03:33;;;;;;;4.33;1.40;;;15.20;99.90;;;;;;5014396;28;20231;-77
2022/05/27 02:06:17;;;;;;;5.33;1.30;;;15.20;1.00;;;;;;4997180;28;20201;-77
2022/05/27 02:09:00;;;;;;;6.90;1.63;;;15.20;1.00;;;;;;5014779;28;20244;-76
2022/05/27 02:11:26;;;;;;;4.10;1.77;;;15.20;99.90;;;;;;5014721;28;20153;-77
2022/05/27 02:14:10;;;;;;;2.70;1.27;;;15.20;1.00;;;;;;5014606;28;20635;-77
2022/05/27 02:16:44;;;;;;;3.17;1.70;;;15.10;99.90;;;;;;5014697;28;20204;-76
2022/05/27 02:19:33;;;;;;;2.50;1.70;;;15.10;1.00;;;;;;5014504;28;20167;-77
2022/05/27 02:22:11;;;;;;;4.67;1.77;;;15.10;1.00;;;;;;5014233;28;20201;-76
2022/05/27 02:24:41;;;;;;;4.63;1.43;;;15.10;1.00;;;;;;5014346;28;20652;-76
2022/05/27 02:27:13;;;;;;;5.73;1.60;;;15.10;1.00;;;;;;5014103;28;20216;-76
2022/05/27 02:29:42;;;;;;;3.27;1.87;;;15.00;1.00;;;;;;5014415;28;20157;-77
2022/05/27 02:32:33;;;;;;;3.43;1.70;;;15.00;77.40;;;;;;5012932;28;20183;-77
2022/05/27 02:35:23;;;;;;;4.63;1.90;;;14.90;99.90;;;;;;5014027;28;20645;-76
2022/05/27 02:37:55;;;;;;;9.00;2.30;;;14.90;99.90;;;;;;5013781;28;20208;-77
2022/05/27 02:40:28;;;;;;;8.37;2.10;;;14.80;99.90;;;;;;4996300;28;20176;-77
2022/05/27 02:43:16;;;;;;;3.47;1.97;;;14.60;99.90;;;;;;5013986;28;20165;-77
2022/05/27 02:45:52;;;;;;;6.60;2.50;;;14.60;99.90;;;;;;5013598;28;20185;-76
2022/05/27 02:48:35;;;;;;;4.00;2.07;;;14.60;99.90;;;;;;5013728;28;20670;-76
2022/05/27 02:51:28;;;;;;;8.83;2.30;;;14.60;99.90;;;;;;5013537;28;20168;-77
2022/05/27 02:54:03;;;;;;;7.73;2.17;;;14.50;99.90;;;;;;5013584;28;20164;-77
2022/05/27 02:57:05;;;;;;;4.73;2.20;;;14.50;99.90;;;;;;4995866;28;20197;-75
2022/05/27 02:59:33;;;;;;;5.83;2.20;;;14.50;99.90;;;;;;4982335;28;20191;-76
2022/05/27 03:02:08;;;;;;;4.87;2.10;;;14.40;99.90;;;;;;4994943;28;20272;-77
2022/05/27 03:04:34;;;;;;;5.57;2.67;;;14.50;99.90;;;;;;5013831;28;20180;-76
2022/05/27 03:07:18;;;;;;;4.20;2.03;;;14.40;99.90;;;;;;4996091;28;20209;-77
2022/05/27 03:10:02;;;;;;;5.47;2.23;;;14.40;99.90;;;;;;5014082;28;20196;-76
2022/05/27 03:12:50;;;;;;;5.50;2.40;;;14.30;99.90;;;;;;5013647;28;20227;-77
2022/05/27 03:15:25;;;;;;;4.90;2.30;;;14.20;99.90;;;;;;5005559;28;20682;-77
2022/05/27 03:18:06;;;;;;;5.67;2.73;;;14.10;99.90;;;;;;5015238;28;20192;-77
2022/05/27 03:20:55;;;;;;;5.30;2.90;;;14.10;99.90;;;;;;4996517;28;20173;-77
2022/05/27 03:23:33;;;;;;;5.13;2.63;;;14.10;99.90;;;;;;5014329;28;20153;-77
2022/05/27 03:26:08;;;;;;;6.30;2.97;;;14.00;99.90;;;;;;5013952;28;20189;-76
2022/05/27 03:28:51;;;;;;;4.80;2.87;;;14.00;99.90;;;;;;4996193;28;20239;-77
2022/05/27 03:31:49;;;;;;;5.70;2.97;;;13.90;99.90;;;;;;5013704;28;20624;-77
2022/05/27 03:34:31;;;;;;;6.67;3.03;;;13.90;99.90;;;;;;4993086;28;20233;-77
2022/05/27 03:37:22;;;;;;;7.20;3.07;;;13.90;99.90;;;;;;4996327;28;20697;-79
2022/05/27 03:39:54;;;;;;;8.67;3.53;;;13.90;99.90;;;;;;5014201;28;20576;-78
2022/05/27 03:42:24;;;;;;;6.30;4.13;;;13.90;99.90;;;;;;4997249;28;20173;-78
2022/05/27 03:45:12;;;;;;;6.60;4.00;;;13.90;99.90;;;;;;5015924;28;20177;-79
2022/05/27 03:47:38;;;;;;;4.63;3.37;;;13.80;99.90;;;;;;5004789;28;20219;-79
2022/05/27 03:50:06;;;;;;;11.20;4.03;;;13.90;99.90;;;;;;4997867;28;20180;-79
2022/05/27 03:52:40;;;;;;;7.97;4.67;;;13.90;99.90;;;;;;4997934;28;20207;-77
2022/05/27 03:55:08;;;;;;;9.90;4.70;;;13.90;99.90;;;;;;5015617;28;20179;-80
2022/05/27 03:57:34;;;;;;;11.40;5.10;;;13.90;99.90;;;;;;5017061;28;20315;-80
2022/05/27 03:59:59;;;;;;;6.13;3.63;;;13.90;99.90;;;;;;5018580;28;20169;-80
2022/05/27 04:02:25;;;;;;;3.80;3.40;;;13.90;99.90;;;;;;5003417;28;20165;-80
2022/05/27 04:04:50;;;;;;;5.30;2.90;;;13.80;99.90;;;;;;5020173;28;20563;-80
2022/05/27 04:07:16;;;;;;;4.73;2.50;;;13.70;99.90;;;;;;5012213;28;20270;-79
2022/05/27 04:09:41;;;;;;;2.17;1.80;;;13.50;99.90;;;;;;5013913;28;20219;-79
2022/05/27 04:12:07;;;;;;;4.17;1.80;;;13.50;99.90;;;;;;4996218;28;20176;-79
2022/05/27 04:14:33;;;;;;;3.87;1.50;;;13.40;99.90;;;;;;4996330;28;20189;-78
2022/05/27 04:19:43;;;;;;;3.33;1.63;;;13.40;99.90;;;;;;5014055;28;20334;-77
2022/05/27 04:22:10;;;;;;;3.00;1.80;;;13.40;99.90;;;;;;5014101;28;20642;-79
2022/05/27 04:24:35;;;;;;;3.10;1.60;;;13.40;99.90;;;;;;5014223;28;20169;-78
2022/05/27 04:27:08;;;;;;;2.63;1.83;;;13.50;99.90;;;;;;5017368;28;20296;-78
2022/05/27 04:29:41;;;;;;;4.30;2.70;;;13.50;99.90;;;;;;4999801;28;20204;-79
2022/05/27 04:32:07;;;;;;;4.53;2.60;;;13.50;99.90;;;;;;5017954;28;20161;-79
2022/05/27 04:34:32;;;;;;;5.37;2.17;;;13.40;99.90;;;;;;5017952;28;20239;-79
2022/05/27 04:36:58;;;;;;;4.67;2.20;;;13.40;99.90;;;;;;4999701;28;20660;-78
2022/05/27 04:39:23;;;;;;;4.80;3.00;;;13.50;99.90;;;;;;4999930;28;20697;-79
2022/05/27 04:41:49;;;;;;;6.80;3.03;;;13.50;99.90;;;;;;5017494;28;20211;-78
2022/05/27 04:44:14;;;;;;;3.47;2.83;;;13.50;99.90;;;;;;5017620;28;20191;-79
2022/05/27 04:46:40;;;;;;;3.80;2.63;;;13.50;99.90;;;;;;5017110;28;20286;-79
2022/05/27 04:49:05;;;;;;;4.53;2.40;;;13.50;99.90;;;;;;4999635;28;20203;-78
2022/05/27 04:51:31;;;;;;;6.90;3.00;;;13.50;99.90;;;;;;4999561;28;20176;-78
2022/05/27 04:53:56;;;;;;;5.43;3.00;;;13.50;99.90;;;;;;4999652;28;20674;-79
2022/05/27 04:56:25;;;;;;;6.33;3.03;;;13.50;99.90;;;;;;5000146;28;20687;-79
2022/05/27 04:58:50;;;;;;;7.77;4.37;;;13.50;99.90;;;;;;5017575;28;20272;-79
2022/05/27 05:01:16;;;;;;;12.73;5.17;;;13.50;99.90;;;;;;5000174;28;20248;-78
2022/05/27 05:03:41;;;;;;;11.93;5.57;;;13.50;99.90;;;;;;4999490;28;20181;-78
2022/05/27 05:06:07;;;;;;;10.17;5.13;;;13.50;99.90;;;;;;4999278;28;20547;-78
2022/05/27 05:08:36;;;;;;;6.17;4.20;;;13.50;99.90;;;;;;5017104;28;20177;-79
2022/05/27 05:11:03;;;;;;;6.37;4.23;;;13.40;99.90;;;;;;4999287;28;20173;-78
2022/05/27 05:13:33;;;;;;;10.27;4.87;;;13.40;99.90;;;;;;5017402;28;20169;-79
2022/05/27 05:15:59;;;;;;;8.83;4.03;;;13.50;99.90;;;;;;5017096;28;20201;-78
2022/05/27 05:18:25;;;;;;;10.47;4.00;;;13.50;99.90;;;;;;5016694;28;20251;-78
2022/05/27 05:20:51;;;;;;;9.23;3.77;;;13.50;99.90;;;;;;5015910;28;20180;-79
2022/05/27 05:23:16;;;;;;;8.53;3.60;;;13.50;99.90;;;;;;5017204;28;20248;-79
2022/05/27 05:25:42;;;;;;;12.43;4.43;;;13.50;99.90;;;;;;5017446;28;20687;-78
2022/05/27 05:28:07;;;;;;;11.13;4.67;;;13.50;99.90;;;;;;5016611;28;20236;-79
2022/05/27 05:30:34;;;;;;;8.67;4.20;;;13.50;99.90;;;;;;4999360;28;20176;-78
2022/05/27 05:32:59;;;;;;;6.80;3.93;;;13.50;99.90;;;;;;5017372;28;20166;-79
2022/05/27 05:35:25;;;;;;;7.73;4.27;;;13.50;99.90;;;;;;4999754;28;20548;-78
2022/05/27 05:37:51;;;;;;;5.70;3.20;;;13.50;99.90;;;;;;5016404;28;20581;-79
2022/05/27 05:40:17;;;;;;;4.97;2.77;;;13.60;99.90;;;;;;5016907;28;20173;-79
2022/05/27 05:42:43;;;;;;;7.23;2.50;;;13.60;99.90;;;;;;5016616;28;20172;-78
2022/05/27 05:45:11;;;;;;;6.60;2.70;;;13.60;99.90;;;;;;5016987;28;20546;-79
2022/05/27 05:47:36;;;;;;;6.17;2.47;;;13.70;99.90;;;;;;5016104;28;20211;-78
2022/05/27 05:50:02;;;;;;;7.50;2.70;;;13.70;99.90;;;;;;5016488;28;20263;-79
2022/05/27 05:52:27;;;;;;;5.63;2.20;;;13.70;99.90;;;;;;5016238;28;20201;-78
2022/05/27 05:54:53;;;;;;;5.67;2.67;;;13.60;99.90;;;;;;5015777;28;20602;-79
2022/05/27 05:57:18;;;;;;;6.03;2.10;;;13.60;99.90;;;;;;4997988;28;20292;-78
2022/05/27 05:59:44;;;;;;;7.67;2.17;;;13.70;99.90;;;;;;4998484;28;20271;-78
2022/05/27 06:02:10;;;;;;;3.50;1.80;;;13.60;99.90;;;;;;5015742;28;20209;-78
2022/05/27 06:04:35;;;;;;;3.33;1.97;;;13.60;99.90;;;;;;5014458;28;20185;-78
2022/05/27 06:07:01;;;;;;;7.10;2.00;;;13.60;99.90;;;;;;4997965;28;20208;-78
2022/05/27 06:09:26;;;;;;;2.50;1.77;;;13.50;99.90;;;;;;5015654;28;20177;-79
2022/05/27 06:11:53;;;;;;;4.40;2.17;;;13.60;99.90;;;;;;5015950;28;20447;-79
2022/05/27 06:14:19;;;;;;;3.57;1.80;;;13.60;99.90;;;;;;5015765;28;20588;-78
2022/05/27 06:16:45;;;;;;;4.33;1.93;;;13.60;99.90;;;;;;5015878;28;20211;-79
2022/05/27 06:19:10;;;;;;;7.63;2.43;;;13.70;99.90;;;;;;5015725;28;20216;-78
2022/05/27 06:21:36;;;;;;;3.53;2.00;;;13.70;99.90;;;;;;5015720;28;20550;-78
2022/05/27 06:24:03;;;;;;;7.43;2.77;;;13.80;99.90;;;;;;5015612;28;20177;-78
2022/05/27 06:26:29;;;;;;;6.67;2.57;;;13.80;99.90;;;;;;5014158;28;20213;-78
2022/05/27 06:34:26;;;;;;;4.93;2.27;;;13.90;99.90;;;;;;5015809;28;20634;-78
2022/05/27 06:36:58;;;;;;;6.20;2.67;;;13.80;99.90;;;;;;5015118;28;20232;-78
2022/05/27 06:39:26;;;;;;;5.53;2.43;;;13.90;99.90;;;;;;5015560;28;20702;-78
2022/05/27 06:41:51;;;;;;;4.70;2.37;;;13.90;99.90;;;;;;4997541;28;20177;-78
2022/05/27 06:44:18;;;;;;;8.17;2.60;;;14.00;99.90;;;;;;4997484;28;20649;-78
2022/05/27 06:46:43;;;;;;;7.50;2.40;;;14.10;99.90;;;;;;5014944;28;20243;-78
2022/05/27 06:49:09;;;;;;;6.87;2.73;;;14.10;99.90;;;;;;4996689;28;20177;-78
2022/05/27 06:51:39;;;;;;;3.37;2.60;;;14.10;99.90;;;;;;5015152;28;20176;-79
2022/05/27 06:54:06;;;;;;;7.43;2.90;;;14.30;99.90;;;;;;5015185;28;20173;-78
2022/05/27 06:56:35;;;;;;;7.97;2.60;;;14.20;99.90;;;;;;5014743;28;20582;-77
2022/05/27 06:59:04;;;;;;;10.63;2.83;;;14.20;99.90;;;;;;5017746;28;20219;-79
2022/05/27 07:01:30;;;;;;;8.87;2.60;;;14.20;99.90;;;;;;5015716;28;20177;-78
2022/05/27 07:03:57;;;;;;;5.93;2.70;;;14.20;99.90;;;;;;5017742;28;20241;-78
2022/05/27 07:06:25;;;;;;;10.60;2.70;;;14.20;99.90;;;;;;5018897;28;20211;-78
2022/05/27 07:08:51;;;;;;;4.60;2.60;;;14.30;99.90;;;;;;5018421;28;20191;-78
2022/05/27 07:11:16;;;;;;;8.17;3.03;;;14.40;99.90;;;;;;5022828;28;20173;-78
2022/05/27 07:13:42;;;;;;;7.23;2.90;;;14.50;99.90;;;;;;5021842;28;20593;-78
2022/05/27 07:16:07;;;;;;;9.50;2.90;;;14.40;99.90;;;;;;5016772;28;20177;-77
2022/05/27 07:18:33;;;;;;;3.10;2.10;;;14.40;99.90;;;;;;5018625;28;20650;-77
2022/05/27 07:21:04;;;;;;;4.23;2.90;;;14.50;99.90;;;;;;5015574;28;20188;-78
2022/05/27 07:23:30;;;;;;;7.33;2.80;;;14.50;99.90;;;;;;4997621;28;20687;-77
2022/05/27 07:25:56;;;;;;;6.33;2.73;;;14.50;99.90;;;;;;4996118;28;20201;-76
2022/05/27 07:28:21;;;;;;;9.27;3.37;;;14.60;99.90;;;;;;5013535;28;20188;-76
2022/05/27 07:30:47;;;;;;;8.20;3.33;;;14.60;99.90;;;;;;5013578;28;20169;-77
2022/05/27 07:33:12;;;;;;;7.33;3.40;;;14.60;99.90;;;;;;5014192;28;20227;-77
2022/05/27 07:35:38;;;;;;;9.47;4.17;;;14.70;99.90;;;;;;4996438;28;20185;-77
2022/05/27 07:38:04;;;;;;;7.43;4.03;;;14.80;99.90;;;;;;5013788;28;20577;-77
2022/05/27 07:40:29;;;;;;;12.73;5.77;;;14.90;99.90;;;;;;5014535;28;20177;-75
2022/05/27 07:42:55;;;;;;;13.43;5.60;;;14.80;99.90;;;;;;4997068;28;20184;-77
2022/05/27 07:45:26;;;;;;;8.73;4.83;;;14.80;99.90;;;;;;5014792;28;20581;-77
2022/05/27 07:47:53;;;;;;;9.17;4.60;;;14.80;99.90;;;;;;5014630;28;20238;-77
2022/05/27 07:50:20;;;;;;;9.23;4.93;;;14.90;99.90;;;;;;5014097;28;20176;-77
2022/05/27 07:52:48;;;;;;;11.80;5.87;;;14.90;99.90;;;;;;4999273;28;20173;-78
2022/05/27 07:55:14;;;;;;;11.73;4.83;;;14.90;99.90;;;;;;4997263;28;20173;-77
2022/05/27 07:57:42;;;;;;;12.63;5.90;;;15.10;99.90;;;;;;5014071;28;20201;-77
2022/05/27 08:00:11;;;;;;;12.17;5.40;;;15.20;99.90;;;;;;5011491;28;20187;-76
2022/05/27 08:02:37;;;;;;;11.13;5.70;;;15.30;99.90;;;;;;5011871;28;20180;-77
2022/05/27 08:05:03;;;;;;;14.30;5.90;;;15.30;99.90;;;;;;5013054;28;20601;-76
2022/05/27 08:07:28;;;;;;;9.83;5.63;;;15.40;99.90;;;;;;4995441;28;20205;-76
2022/05/27 08:09:54;;;;;;;9.77;5.37;;;15.40;99.90;;;;;;5078147;22;20234;-74
2022/05/27 08:12:20;;;;;;;6.27;2.90;;;15.50;99.90;;;;;;5052641;28;20172;-74
2022/05/27 08:14:45;;;;;;;5.47;3.00;;;15.60;99.90;;;;;;5052607;28;20541;-73
2022/05/27 08:17:11;;;;;;;5.83;3.20;;;15.60;99.90;;;;;;5052586;28;20179;-72
2022/05/27 08:19:36;;;;;;;8.73;3.37;;;15.60;99.90;;;;;;5052427;28;20619;-73
2022/05/27 08:22:03;;;;;;;9.97;2.73;;;15.70;99.90;;;;;;5051224;28;20592;-74
2022/05/27 08:24:28;;;;;;;10.97;2.93;;;15.80;99.90;;;;;;5052519;28;20546;-73
2022/05/27 08:26:54;;;;;;;7.77;2.57;;;15.80;99.90;;;;;;5061295;28;20198;-73
2022/05/27 08:29:20;;;;;;;10.20;2.93;;;15.90;99.90;;;;;;5072242;28;20249;-72
2022/05/27 08:31:45;;;;;;;6.40;3.13;;;16.00;99.90;;;;;;5072294;28;20178;-73
2022/05/27 08:39:46;;;;;;;6.20;2.47;;;16.30;1.00;;;;;;5052926;28;20234;-72
2022/05/27 08:42:32;;;;;;;9.93;2.60;;;16.40;1.00;;;;;;5072427;28;20203;-72
2022/05/27 08:45:36;;;;;;;7.17;2.27;;;16.30;99.90;;;;;;5071040;28;20183;-73
2022/05/27 08:48:08;;;;;;;7.33;2.27;;;16.20;99.90;;;;;;5064031;28;20190;-73
2022/05/27 08:50:33;;;;;;;11.40;2.90;;;16.20;1.00;;;;;;5070905;28;20186;-73
2022/05/27 08:53:25;;;;;;;10.00;2.60;;;16.10;1.00;;;;;;5072056;28;20171;-72
2022/05/27 09:01:37;;;;;;;8.00;2.20;;;16.20;1.00;;;;;;5072254;28;20202;-74
2022/05/27 09:04:18;;;;;;;6.80;2.30;;;16.30;1.00;;;;;;5072261;28;20159;-73
2022/05/27 09:06:55;;;;;;;6.90;2.20;;;16.50;99.90;;;;;;5072130;28;20527;-72
2022/05/27 09:09:24;;;;;;;10.00;2.67;;;16.60;1.00;;;;;;5072037;28;20226;-73
2022/05/27 09:12:24;;;;;;;8.70;1.93;;;16.80;45.90;;;;;;5056507;28;20178;-73
2022/05/27 09:15:12;;;;;;;4.57;1.97;;;16.90;5.10;;;;;;5054405;28;20167;-74
2022/05/27 09:17:44;;;;;;;8.77;2.50;;;16.90;1.00;;;;;;5054284;28;20184;-73
2022/05/27 09:20:16;;;;;;;6.70;2.00;;;16.80;99.90;;;;;;5054096;28;20198;-73
2022/05/27 09:22:56;;;;;;;5.43;1.87;;;17.00;92.30;;;;;;5054156;28;20176;-72
2022/05/27 09:25:45;;;;;;;8.80;2.40;;;16.90;1.00;;;;;;5055387;28;20233;-73
2022/05/27 09:28:47;;;;;;;7.73;2.00;;;16.70;1.00;;;;;;5073251;28;20224;-73
2022/05/27 09:31:18;;;;;;;6.73;1.93;;;16.90;1.00;;;;;;5074466;28;20644;-74
2022/05/27 09:33:45;;;;;;;9.43;2.40;;;16.90;99.90;;;;;;5075237;28;20315;-73
2022/05/27 09:36:18;;;;;;;8.37;2.33;;;17.10;99.90;;;;;;5075273;28;20178;-73
2022/05/27 09:38:57;;;;;;;6.37;2.27;;;17.10;99.90;;;;;;5075114;28;20738;-72
2022/05/27 09:41:36;;;;;;;9.63;2.17;;;17.00;1.00;;;;;;5075196;28;20160;-72
2022/05/27 09:44:20;;;;;;;6.47;2.00;;;17.00;99.90;;;;;;5075199;28;20245;-72
2022/05/27 09:46:46;;;;;;;8.67;2.40;;;16.90;1.00;;;;;;5074975;28;20199;-72
2022/05/27 09:49:12;;;;;;;8.10;2.13;;;17.00;99.90;;;;;;5073603;28;20676;-74
2022/05/27 09:51:38;;;;;;;6.90;2.03;;;17.00;1.00;;;;;;5074765;28;20171;-74
2022/05/27 09:54:18;;;;;;;5.53;2.53;;;17.00;99.90;;;;;;5074869;28;20640;-73
2022/05/27 09:57:01;;;;;;;9.30;2.30;;;17.00;99.90;;;;;;5074846;28;20159;-73
2022/05/27 09:59:37;;;;;;;6.27;2.20;;;17.10;1.00;;;;;;5074655;28;20195;-75
2022/05/27 10:02:35;;;;;;;9.00;2.07;;;17.20;1.00;;;;;;5074698;28;20178;-74
2022/05/27 10:05:17;;;;;;;5.57;2.10;;;17.20;99.90;;;;;;5074603;28;20159;-73
2022/05/27 10:07:57;;;;;;;7.53;1.97;;;17.20;1.00;;;;;;5074544;28;20194;-72
2022/05/27 10:10:26;;;;;;;8.10;2.27;;;17.20;54.80;;;;;;5073212;28;20566;-73
2022/05/27 10:12:52;;;;;;;8.07;2.57;;;17.30;99.90;;;;;;5073259;28;20170;-73
2022/05/27 10:15:24;;;;;;;9.20;2.67;;;17.30;1.00;;;;;;5074482;28;20167;-73
2022/05/27 10:17:50;;;;;;;11.47;2.10;;;17.40;99.90;;;;;;5073140;28;20290;-73
2022/05/27 10:20:34;;;;;;;7.73;2.30;;;17.40;99.90;;;;;;5072914;28;20701;-74
2022/05/27 10:23:06;;;;;;;5.87;2.23;;;17.40;1.00;;;;;;5072857;28;20552;-73
2022/05/27 10:25:36;;;;;;;6.73;2.30;;;17.30;99.90;;;;;;5074182;28;20169;-74
2022/05/27 10:28:04;;;;;;;10.53;2.40;;;17.30;1.00;;;;;;5056085;28;20170;-74
2022/05/27 10:30:36;;;;;;;9.77;2.33;;;17.30;1.00;;;;;;5052960;28;20167;-74
2022/05/27 10:33:22;;;;;;;5.97;1.97;;;17.50;1.00;;;;;;5054069;28;20569;-73
2022/05/27 10:35:51;;;;;;;5.63;1.97;;;17.50;99.90;;;;;;5054234;28;20179;-74
2022/05/27 10:38:38;;;;;;;8.67;2.40;;;17.60;99.90;;;;;;5053989;28;20184;-74
2022/05/27 10:41:07;;;;;;;6.90;2.00;;;17.60;1.00;;;;;;5053961;28;20205;-74
2022/05/27 10:43:54;;;;;;;12.17;2.70;;;17.60;12.80;;;;;;5053969;28;20168;-73
2022/05/27 10:46:25;;;;;;;8.13;2.27;;;17.60;1.00;;;;;;5053817;28;20238;-73
2022/05/27 10:49:03;;;;;;;4.93;2.40;;;17.50;1.00;;;;;;5053836;28;20206;-72
2022/05/27 10:52:04;;;;;;;8.70;2.17;;;17.50;99.90;;;;;;5053740;28;20569;-74
2022/05/27 10:54:47;;;;;;;7.53;2.30;;;17.60;99.90;;;;;;5039243;28;20179;-74
2022/05/27 11:03:38;;;;;;;8.17;2.40;;;17.30;99.90;;;;;;5053875;28;20537;-73
2022/05/27 11:06:31;;;;;;;11.53;2.47;;;17.30;99.90;;;;;;5052087;28;20688;-72
2022/05/27 11:09:05;;;;;;;7.53;2.27;;;17.40;39.30;;;;;;5053320;28;20210;-73
2022/05/27 11:12:01;;;;;;;4.77;2.20;;;17.60;99.90;;;;;;5053270;28;20176;-72
2022/05/27 11:15:11;;;;;;;8.93;2.27;;;17.70;99.90;;;;;;5053371;28;20163;-74
2022/05/27 11:18:12;;;;;;;7.77;2.33;;;17.90;99.90;;;;;;5053334;28;20178;-74
2022/05/27 11:20:54;;;;;;;6.53;2.07;;;18.10;99.90;;;;;;5053146;28;20510;-74
2022/05/27 11:23:50;;;;;;;5.03;1.70;;;18.10;99.90;;;;;;5053244;28;20163;-72
2022/05/27 11:26:53;;;;;;;8.47;2.50;;;17.90;48.20;;;;;;5055273;28;20195;-73
2022/05/27 11:29:50;;;;;;;8.20;2.00;;;17.80;99.90;;;;;;5072975;28;20221;-72
2022/05/27 11:32:48;;;;;;;4.40;2.10;;;17.70;1.00;;;;;;5073163;28;20191;-74
2022/05/27 11:35:21;;;;;;;6.27;2.23;;;17.80;1.00;;;;;;5072446;28;20239;-73
2022/05/27 11:37:54;;;;;;;8.37;2.53;;;17.90;1.00;;;;;;5072977;28;20187;-72
2022/05/27 11:40:48;;;;;;;9.27;2.80;;;18.20;99.90;;;;;;5072850;28;20229;-73
2022/05/27 11:43:42;;;;;;;9.73;2.77;;;18.20;1.00;;;;;;5073008;28;20648;-73
2022/05/27 11:46:28;;;;;;;7.97;2.07;;;18.40;46.60;;;;;;5071623;28;20220;-73
2022/05/27 11:49:05;;;;;;;7.30;2.40;;;18.50;30.00;;;;;;5071642;28;20726;-74
2022/05/27 11:51:49;;;;;;;7.50;2.30;;;18.60;6.00;;;;;;5071401;28;20702;-74
2022/05/27 11:54:32;;;;;;;8.27;2.40;;;18.60;1.00;;;;;;5071563;28;20276;-72
2022/05/27 11:57:15;;;;;;;6.03;2.00;;;18.60;1.00;;;;;;5073053;28;20170;-72
2022/05/27 12:00:06;;;;;;;10.70;2.30;;;18.80;99.90;;;;;;5072698;28;20191;-73
2022/05/27 12:02:48;;;;;;;7.20;2.30;;;18.80;99.90;;;;;;5071426;28;20703;-72
2022/05/27 12:05:19;;;;;;;6.33;1.73;;;18.80;99.90;;;;;;5072677;28;20166;-71
2022/05/27 12:07:50;;;;;;;7.10;2.33;;;18.60;99.90;;;;;;5071444;28;20194;-72
2022/05/27 12:10:44;;;;;;;6.50;2.27;;;18.70;99.90;;;;;;5072459;28;20218;-73
2022/05/27 12:13:33;;;;;;;7.40;2.10;;;18.90;99.90;;;;;;5072827;28;20659;-73
2022/05/27 12:16:26;;;;;;;8.83;1.90;;;18.80;1.00;;;;;;5064078;28;20591;-73
2022/05/27 12:19:00;;;;;;;5.90;1.80;;;18.80;1.00;;;;;;5052570;28;20191;-73
2022/05/27 12:21:35;;;;;;;7.97;1.70;;;18.60;1.00;;;;;;5051194;28;20171;-74
2022/05/27 12:24:24;;;;;;;6.90;1.90;;;18.60;1.00;;;;;;5052680;28;20170;-73
2022/05/27 12:26:53;;;;;;;7.07;1.90;;;18.60;99.90;;;;;;5051331;28;20198;-72
2022/05/27 12:29:21;;;;;;;16.13;2.50;;;18.80;99.90;;;;;;5052580;28;20560;-74
2022/05/27 12:31:48;;;;;;;6.20;1.70;;;18.90;99.90;;;;;;5052604;28;20179;-73
2022/05/27 12:34:28;;;;;;;6.47;2.00;;;18.80;1.00;;;;;;5052693;28;20318;-73
2022/05/27 12:37:14;;;;;;;8.10;2.17;;;18.80;1.00;;;;;;5052488;28;20190;-73
2022/05/27 12:39:41;;;;;;;8.23;1.93;;;18.70;99.90;;;;;;5051122;28;20202;-73
2022/05/27 12:42:28;;;;;;;5.27;2.00;;;18.70;99.90;;;;;;5052511;28;20271;-73
2022/05/27 12:44:54;;;;;;;7.90;2.10;;;18.80;99.90;;;;;;5052804;28;20614;-74
2022/05/27 12:47:29;;;;;;;7.03;1.73;;;18.90;99.90;;;;;;5054230;28;20202;-75
2022/05/27 12:50:01;;;;;;;8.67;2.10;;;19.00;99.90;;;;;;5054959;28;20199;-73
2022/05/27 12:52:29;;;;;;;5.83;1.77;;;19.00;99.90;;;;;;5054996;28;20180;-73
2022/05/27 12:54:56;;;;;;;8.00;2.10;;;18.90;99.90;;;;;;5056242;28;20251;-74
2022/05/27 13:03:40;;;;;;;4.67;1.87;;;19.10;49.20;;;;;;5056324;28;20214;-73
2022/05/27 13:06:07;;;;;;;5.67;1.70;;;18.80;1.00;;;;;;5055879;28;20191;-73
2022/05/27 13:08:48;;;;;;;7.10;1.80;;;18.60;1.00;;;;;;5055763;28;20200;-73
2022/05/27 13:11:37;;;;;;;5.53;2.00;;;18.50;9.10;;;;;;5056171;28;20528;-73
2022/05/27 13:14:03;;;;;;;5.77;1.80;;;18.60;91.10;;;;;;5046939;28;20179;-75
2022/05/27 13:16:30;;;;;;;6.87;1.90;;;18.80;15.00;;;;;;5055768;28;20703;-72
2022/05/27 13:19:03;;;;;;;5.20;1.70;;;18.90;31.30;;;;;;5056037;28;20201;-73
2022/05/27 13:21:47;;;;;;;6.50;1.80;;;19.00;1.00;;;;;;5054861;28;20210;-73
2022/05/27 13:24:13;;;;;;;8.20;2.00;;;19.10;1.00;;;;;;5056390;28;20474;-73
2022/05/27 13:26:54;;;;;;;7.80;2.23;;;19.30;1.00;;;;;;5055472;28;20219;-73
2022/05/27 13:29:27;;;;;;;4.67;1.90;;;19.50;1.00;;;;;;5055614;28;20211;-74
2022/05/27 13:32:06;;;;;;;7.17;2.10;;;19.30;1.00;;;;;;5054269;28;20164;-73
2022/05/27 13:34:40;;;;;;;6.27;1.77;;;19.10;1.00;;;;;;5055747;28;20568;-75
2022/05/27 13:37:15;;;;;;;8.23;1.80;;;19.20;1.00;;;;;;5054195;28;20169;-74
2022/05/27 13:39:49;;;;;;;7.43;1.97;;;18.90;1.00;;;;;;5054037;28;20224;-72
2022/05/27 13:42:35;;;;;;;12.53;2.73;;;18.90;1.00;;;;;;5055084;28;20178;-74
2022/05/27 13:45:28;;;;;;;8.23;2.30;;;18.80;1.00;;;;;;5055407;28;20581;-73
2022/05/27 13:48:19;;;;;;;7.13;1.97;;;19.00;1.00;;;;;;5048064;28;20277;-72
2022/05/27 13:50:47;;;;;;;5.27;1.83;;;19.20;1.00;;;;;;5053984;28;20692;-72
2022/05/27 13:53:19;;;;;;;4.83;1.77;;;19.60;1.00;;;;;;5053774;28;20179;-72
2022/05/27 13:55:46;;;;;;;6.53;2.10;;;19.80;1.00;;;;;;5055084;28;20164;-73
2022/05/27 13:58:15;;;;;;;6.83;1.83;;;19.90;1.00;;;;;;5054232;28;20539;-73